Claes Maersk — OZDT2 — position and weather

sailwx.info

Track history (hours):
 
Tides and Currents Weather Stations Pressure Air Temp Water Temp Dewpoint Dewpoint Depression Visibility Wind Speed Wind Dir Waves Ship Positions

Claes Maersk

Last reported at 2014-Jul-26 14:33 UTC. Time now 2014-Aug-28 23:21 UTC.
Position N 35°57' W 005°29'.
Warning: this ship's position is 33 days out of date.

Length 190 m; draft 9.3 m.

Type: Cargo ship. MMSI: 219572000.

Date/timePositionNaut miles runAvg speedWind from/ knotsBaromVisibWave heightAir tempDewpointWater temp
2014-Jul-26 14:33N 35°57' W 005°29'1211.8
2014-Jul-26 13:31N 35°54' W 005°44'207 9.4
2014-Jul-25 15:28N 37°33' W 009°32'1111.4
2014-Jul-25 14:33N 37°43' W 009°30'1111.3
2014-Jul-25 13:33N 37°55' W 009°28'1211.5
2014-Jul-25 12:33N 38°06' W 009°27'1311.2
2014-Jul-25 11:25N 38°19' W 009°26'2111.1
2014-Jul-25 09:33N 38°39' W 009°20'8 8.0
2014-Jul-25 08:33N 38°41' W 009°10'1 0.6
2014-Jul-25 07:33N 38°42' W 009°10'0 0.0
2014-Jul-25 06:33N 38°42' W 009°10'0 0.0
2014-Jul-25 05:33N 38°42' W 009°10'0 0.0
2014-Jul-25 04:33N 38°42' W 009°10'0 0.0
2014-Jul-25 03:33N 38°42' W 009°10'0 0.0
2014-Jul-25 02:33N 38°42' W 009°10'0 0.0
2014-Jul-25 01:33N 38°42' W 009°10'0 0.0
2014-Jul-25 00:33N 38°42' W 009°10'0 0.0
2014-Jul-24 23:33N 38°42' W 009°10'0 0.0
2014-Jul-24 22:33N 38°42' W 009°10'0 0.0
2014-Jul-24 21:33N 38°42' W 009°10'0 0.0
2014-Jul-24 20:32N 38°42' W 009°10'0 0.0
2014-Jul-24 19:32N 38°42' W 009°10'0 0.0
2014-Jul-24 18:32N 38°42' W 009°10'0 0.0
2014-Jul-24 17:32N 38°42' W 009°10'24 1.0
2014-Jul-23 16:34N 38°22' W 009°27'1 0.7
2014-Jul-23 15:33N 38°22' W 009°28'2 1.7
2014-Jul-23 14:33N 38°23' W 009°29'1 1.5
2014-Jul-23 13:33N 38°24' W 009°30'2 1.5
2014-Jul-23 12:33N 38°26' W 009°30'  
2014-Jul-16 16:31N 35°02' W 006°57'  
Track history (hours):
 
Tides and Currents Weather Stations Pressure Air Temp Water Temp Dewpoint Dewpoint Depression Visibility Wind Speed Wind Dir Waves Ship Positions

Claes Maersk

Last reported at 2014-Jul-26 14:33 UTC. Time now 2014-Aug-28 23:21 UTC.
Position N 35°57' W 005°29'.
Warning: this ship's position is 33 days out of date.

Length 190 m; draft 9.3 m.

Type: Cargo ship. MMSI: 219572000.

Date/timePositionNaut miles runAvg speedWind from/ knotsBaromVisibWave heightAir tempDewpointWater temp
2014-Jul-26 14:33N 35°57' W 005°29'1211.8
2014-Jul-26 13:31N 35°54' W 005°44'207 9.4
2014-Jul-25 15:28N 37°33' W 009°32'1111.4
2014-Jul-25 14:33N 37°43' W 009°30'1111.3
2014-Jul-25 13:33N 37°55' W 009°28'1211.5
2014-Jul-25 12:33N 38°06' W 009°27'1311.2
2014-Jul-25 11:25N 38°19' W 009°26'2111.1
2014-Jul-25 09:33N 38°39' W 009°20'8 8.0
2014-Jul-25 08:33N 38°41' W 009°10'1 0.6
2014-Jul-25 07:33N 38°42' W 009°10'0 0.0
2014-Jul-25 06:33N 38°42' W 009°10'0 0.0
2014-Jul-25 05:33N 38°42' W 009°10'0 0.0
2014-Jul-25 04:33N 38°42' W 009°10'0 0.0
2014-Jul-25 03:33N 38°42' W 009°10'0 0.0
2014-Jul-25 02:33N 38°42' W 009°10'0 0.0
2014-Jul-25 01:33N 38°42' W 009°10'0 0.0
2014-Jul-25 00:33N 38°42' W 009°10'0 0.0
2014-Jul-24 23:33N 38°42' W 009°10'0 0.0
2014-Jul-24 22:33N 38°42' W 009°10'0 0.0
2014-Jul-24 21:33N 38°42' W 009°10'0 0.0
2014-Jul-24 20:32N 38°42' W 009°10'0 0.0
2014-Jul-24 19:32N 38°42' W 009°10'0 0.0
2014-Jul-24 18:32N 38°42' W 009°10'0 0.0
2014-Jul-24 17:32N 38°42' W 009°10'24 1.0
2014-Jul-23 16:34N 38°22' W 009°27'1 0.7
2014-Jul-23 15:33N 38°22' W 009°28'2 1.7
2014-Jul-23 14:33N 38°23' W 009°29'1 1.5
2014-Jul-23 13:33N 38°24' W 009°30'2 1.5
2014-Jul-23 12:33N 38°26' W 009°30'  
2014-Jul-16 16:31N 35°02' W 006°57'  

Dump ship's entire track history